Time;durP1;ratioP1;P1;durP2;ratioP2;P2;SDS_P1;SDS_P2;PMS_P1;PMS_P2;Temp;Humidity;BMP_temperature;BMP_pressure;BME280_temperature;BME280_humidity;BME280_pressure;Samples;Min_cycle;Max_cycle;Signal;HPM_P1;HPM_P2
2023/08/24 04:43:54;;;;;;;11.60;5.90;;;;;;;16.95;92.09;100269.44;110072;1235;25500;-60
2023/08/24 04:46:21;;;;;;;17.60;5.40;;;;;;;17.07;91.56;100263.64;110347;1248;25376;-61
2023/08/24 04:48:49;;;;;;;14.80;5.50;;;;;;;17.20;91.30;100264.88;110719;1248;25357;-60
2023/08/24 04:51:16;;;;;;;14.20;5.60;;;;;;;17.27;90.71;100265.71;110256;1249;24282;-61
2023/08/24 04:53:48;;;;;;;13.70;5.40;;;;;;;17.35;90.52;100263.04;111165;1249;22505;-53
2023/08/24 04:56:28;;;;;;;10.50;6.40;;;;;;;17.47;90.31;100262.88;111020;1249;24024;-53
2023/08/24 04:59:01;;;;;;;11.10;6.00;;;;;;;17.61;90.04;100262.99;111398;1248;23321;-53
2023/08/24 05:01:40;;;;;;;9.10;5.30;;;;;;;17.75;89.54;100260.48;111051;1249;22502;-51
2023/08/24 05:04:09;;;;;;;14.00;5.00;;;;;;;17.90;88.91;100254.76;110773;1249;25237;-52
2023/08/24 05:06:45;;;;;;;8.20;5.50;;;;;;;18.07;88.43;100256.69;110375;1249;25209;-53
2023/08/24 05:09:15;;;;;;;11.10;5.30;;;;;;;18.21;87.71;100253.96;110725;1249;22970;-59
2023/08/24 05:11:42;;;;;;;15.00;5.90;;;;;;;18.28;86.87;100251.08;110613;1249;22488;-61
2023/08/24 05:14:09;;;;;;;7.70;5.60;;;;;;;18.37;86.52;100248.85;110356;1249;24204;-60
2023/08/24 05:16:36;;;;;;;12.40;5.40;;;;;;;18.50;86.12;100246.66;110614;1249;25270;-52
2023/08/24 05:19:03;;;;;;;8.10;5.30;;;;;;;18.63;85.36;100244.63;110551;1249;25433;-52
2023/08/24 05:21:30;;;;;;;7.70;5.50;;;;;;;18.80;85.13;100245.67;110377;1249;22546;-53
2023/08/24 05:23:57;;;;;;;10.10;5.10;;;;;;;18.98;84.32;100244.70;112816;1249;22417;-60
2023/08/24 05:26:24;;;;;;;8.90;5.20;;;;;;;19.16;83.49;100246.52;113056;1249;22489;-60
2023/08/24 05:28:52;;;;;;;7.40;4.30;;;;;;;19.34;82.57;100248.16;113045;1249;22375;-59
2023/08/24 05:31:19;;;;;;;10.00;5.00;;;;;;;19.55;81.46;100246.86;112656;1249;22410;-60
2023/08/24 05:33:48;;;;;;;10.50;4.70;;;;;;;19.76;80.36;100246.45;113022;1249;22377;-53
2023/08/24 05:36:15;;;;;;;10.40;4.60;;;;;;;19.95;79.24;100246.21;113069;1249;22396;-60
2023/08/24 05:38:46;;;;;;;11.10;4.40;;;;;;;20.15;78.10;100237.96;112695;1249;22402;-59
2023/08/24 05:41:31;;;;;;;11.10;5.20;;;;;;;20.38;76.09;100240.23;112480;1249;22516;-61
2023/08/24 05:43:58;;;;;;;17.40;4.80;;;;;;;20.55;74.92;100236.70;112041;1249;22580;-60
2023/08/24 05:46:26;;;;;;;9.10;4.50;;;;;;;20.72;73.38;100234.39;111766;1249;24213;-52
2023/08/24 05:48:55;;;;;;;13.70;4.00;;;;;;;20.90;72.05;100234.16;112038;1249;22452;-52
2023/08/24 05:51:22;;;;;;;9.70;4.50;;;;;;;21.09;70.98;100230.86;111502;1249;22527;-51
2023/08/24 05:53:49;;;;;;;6.80;4.30;;;;;;;21.22;70.03;100225.46;112764;1249;22475;-58
2023/08/24 05:56:16;;;;;;;12.90;5.20;;;;;;;21.35;69.06;100228.45;113005;1249;22393;-53
2023/08/24 05:58:43;;;;;;;9.20;4.30;;;;;;;21.49;68.16;100229.26;111671;1249;23851;-53
2023/08/24 06:01:10;;;;;;;11.60;4.50;;;;;;;21.62;66.92;100233.23;112758;1249;22582;-55
2023/08/24 06:03:37;;;;;;;8.50;3.80;;;;;;;21.75;65.95;100230.86;111496;1249;25326;-53
2023/08/24 06:06:05;;;;;;;8.20;4.10;;;;;;;21.87;64.83;100231.16;110979;1249;24325;-52
2023/08/24 06:08:32;;;;;;;10.50;4.50;;;;;;;22.00;64.21;100231.98;113033;1249;23124;-52
2023/08/24 06:10:59;;;;;;;12.70;4.20;;;;;;;22.13;63.97;100231.20;112723;1249;22501;-53
2023/08/24 06:13:26;;;;;;;6.50;3.60;;;;;;;22.27;63.34;100226.23;112412;1249;22497;-52
2023/08/24 06:15:55;;;;;;;7.10;3.80;;;;;;;22.42;62.81;100221.61;110873;1249;25595;-59
2023/08/24 06:18:22;;;;;;;6.70;3.80;;;;;;;22.55;62.40;100220.05;112429;1249;22317;-60
2023/08/24 06:20:49;;;;;;;5.20;3.20;;;;;;;22.69;61.96;100218.80;111456;1249;23093;-59
2023/08/24 06:23:17;;;;;;;7.00;3.30;;;;;;;22.81;60.34;100215.49;112514;1249;22473;-60
2023/08/24 06:25:44;;;;;;;8.10;3.70;;;;;;;22.92;59.86;100217.30;113017;1249;22462;-53
2023/08/24 06:28:11;;;;;;;10.10;4.80;;;;;;;23.04;59.37;100216.33;112927;1249;22540;-60
2023/08/24 06:30:39;;;;;;;7.00;3.90;;;;;;;23.18;58.72;100215.93;111910;1249;22391;-53
2023/08/24 06:33:07;;;;;;;15.40;4.40;;;;;;;23.30;58.11;100216.69;112973;1249;22375;-60
2023/08/24 06:35:34;;;;;;;4.40;3.50;;;;;;;23.37;58.06;100215.09;113000;1249;22394;-52
2023/08/24 06:38:02;;;;;;;6.40;3.70;;;;;;;23.44;58.57;100212.89;111193;1249;22395;-60
2023/08/24 06:40:29;;;;;;;9.70;4.00;;;;;;;23.51;56.92;100217.35;113010;1249;22933;-53
2023/08/24 06:42:56;;;;;;;9.70;3.70;;;;;;;23.56;56.40;100214.55;113004;1249;22355;-61
2023/08/24 06:45:23;;;;;;;10.80;3.70;;;;;;;23.68;56.14;100212.17;112961;1249;22500;-52
2023/08/24 06:47:51;;;;;;;5.80;3.60;;;;;;;23.80;55.27;100213.24;112220;1249;23242;-52
2023/08/24 06:50:21;;;;;;;10.30;4.10;;;;;;;23.90;54.19;100210.20;111328;1249;24179;-52
2023/08/24 06:52:49;;;;;;;9.50;4.00;;;;;;;24.00;54.09;100210.52;112276;1249;22400;-60
2023/08/24 06:55:16;;;;;;;11.40;4.00;;;;;;;24.09;53.67;100208.73;111694;1249;22259;-59
2023/08/24 06:57:50;;;;;;;8.40;4.30;;;;;;;24.15;52.81;100213.20;112196;1249;22513;-60
2023/08/24 07:00:20;;;;;;;7.50;3.80;;;;;;;24.19;52.49;100208.88;111962;1248;22484;-59
2023/08/24 07:02:51;;;;;;;8.30;3.90;;;;;;;24.27;52.78;100208.64;112105;1249;22519;-52
2023/08/24 07:05:20;;;;;;;7.20;3.70;;;;;;;24.36;53.14;100204.90;112695;1249;23097;-54
2023/08/24 07:07:49;;;;;;;6.40;3.60;;;;;;;24.47;52.35;100205.67;112752;1249;23033;-59
2023/08/24 07:10:17;;;;;;;10.00;4.30;;;;;;;24.54;52.05;100202.09;111247;1249;22517;-52
2023/08/24 07:12:45;;;;;;;12.80;3.90;;;;;;;24.61;52.06;100205.94;112175;1249;22404;-53
2023/08/24 07:15:12;;;;;;;8.70;4.20;;;;;;;24.71;51.49;100203.20;112922;1249;22452;-60
2023/08/24 07:17:39;;;;;;;9.60;4.40;;;;;;;24.79;50.94;100198.78;112956;1249;22426;-53
2023/08/24 07:20:11;;;;;;;6.30;3.90;;;;;;;24.89;50.58;100200.30;111993;1249;22499;-60
2023/08/24 07:22:39;;;;;;;14.00;5.10;;;;;;;25.03;51.07;100199.16;111447;1249;25552;-52
2023/08/24 07:25:06;;;;;;;9.10;5.10;;;;;;;25.12;50.78;100193.20;112707;1249;23357;-54
2023/08/24 07:27:34;;;;;;;14.10;4.50;;;;;;;25.25;50.55;100192.60;112985;1249;22388;-53
2023/08/24 07:30:05;;;;;;;16.90;5.60;;;;;;;25.42;50.49;100192.23;112352;1248;22505;-62
2023/08/24 07:32:49;;;;;;;13.00;4.70;;;;;;;25.59;49.06;100200.66;112649;1249;23226;-53
2023/08/24 07:35:16;;;;;;;9.60;4.80;;;;;;;25.64;48.34;100196.38;112936;1249;22471;-61
2023/08/24 07:37:43;;;;;;;9.80;4.90;;;;;;;25.71;47.73;100194.52;112892;1249;22375;-60
2023/08/24 07:40:11;;;;;;;10.50;5.00;;;;;;;25.80;47.42;100197.85;112893;1249;22364;-51
2023/08/24 07:42:50;;;;;;;9.00;4.40;;;;;;;25.90;47.49;100193.27;112824;1249;148649;-61
2023/08/24 07:45:17;;;;;;;10.70;4.20;;;;;;;26.05;47.06;100199.13;112541;1249;22512;-52
2023/08/24 07:47:45;;;;;;;12.40;4.20;;;;;;;26.08;46.32;100194.61;112938;1249;22506;-59
2023/08/24 07:50:12;;;;;;;5.80;3.60;;;;;;;26.05;45.86;100190.91;112679;1249;22172;-60
2023/08/24 07:52:39;;;;;;;16.30;4.50;;;;;;;26.09;46.31;100191.67;112048;1249;22863;-51
2023/08/24 07:55:07;;;;;;;12.80;4.30;;;;;;;26.20;45.97;100191.63;112002;1249;23227;-52
2023/08/24 07:57:34;;;;;;;12.90;4.70;;;;;;;26.31;45.60;100184.69;112806;1248;23342;-52
2023/08/24 08:00:09;;;;;;;9.50;4.20;;;;;;;26.37;45.55;100188.73;112988;1249;23280;-53
2023/08/24 08:02:39;;;;;;;7.00;4.30;;;;;;;26.42;44.64;100186.97;111958;1249;22394;-60
2023/08/24 08:05:12;;;;;;;8.80;4.20;;;;;;;26.46;44.62;100186.41;112808;1249;23624;-55
2023/08/24 08:07:39;;;;;;;7.20;4.00;;;;;;;26.52;44.17;100185.45;111847;1249;22503;-52
2023/08/24 08:10:07;;;;;;;8.10;3.70;;;;;;;26.59;44.08;100181.05;111144;1249;22483;-51
2023/08/24 08:12:34;;;;;;;18.40;4.10;;;;;;;26.73;43.91;100177.21;112039;1249;22267;-52
2023/08/24 08:15:02;;;;;;;9.30;3.30;;;;;;;26.80;43.14;100181.92;112959;1249;22360;-52
2023/08/24 08:17:30;;;;;;;4.90;2.90;;;;;;;26.73;42.90;100180.21;112091;1249;22524;-53
2023/08/24 08:19:57;;;;;;;10.50;3.40;;;;;;;26.66;42.69;100175.54;111966;1249;22496;-51
2023/08/24 08:22:25;;;;;;;5.40;2.80;;;;;;;26.58;42.79;100176.31;111600;1249;22504;-52
2023/08/24 08:24:54;;;;;;;9.90;2.90;;;;;;;26.60;42.61;100179.36;112936;1249;23283;-53
2023/08/24 08:27:21;;;;;;;3.70;2.10;;;;;;;26.72;42.47;100173.84;112973;1249;22366;-53
2023/08/24 08:29:50;;;;;;;5.50;2.90;;;;;;;26.90;41.71;100174.06;113000;1249;22360;-53
2023/08/24 08:32:17;;;;;;;4.30;2.20;;;;;;;27.10;41.39;100167.66;112942;1249;22401;-52
2023/08/24 08:34:44;;;;;;;9.00;2.50;;;;;;;27.33;41.10;100165.34;112992;1249;22224;-60
2023/08/24 08:37:11;;;;;;;4.40;2.40;;;;;;;27.47;40.75;100168.79;111810;1249;22749;-54
2023/08/24 08:39:39;;;;;;;8.80;2.40;;;;;;;27.49;40.83;100163.42;112936;1249;23319;-53
2023/08/24 08:42:11;;;;;;;3.40;2.20;;;;;;;27.58;40.75;100161.55;112285;1249;24185;-53
2023/08/24 08:44:38;;;;;;;3.40;2.20;;;;;;;27.66;40.42;100165.05;112948;1249;22844;-59
2023/08/24 08:47:06;;;;;;;4.70;2.20;;;;;;;27.63;40.34;100163.29;112808;1249;23445;-54
2023/08/24 08:49:35;;;;;;;3.90;2.00;;;;;;;27.65;40.35;100159.73;112725;1249;22387;-52
2023/08/24 08:52:03;;;;;;;5.90;2.20;;;;;;;27.79;40.45;100154.31;111929;1249;22499;-52
2023/08/24 08:54:31;;;;;;;9.40;2.30;;;;;;;27.92;39.75;100154.76;113017;1249;22407;-60
2023/08/24 08:56:57;;;;;;;5.80;2.30;;;;;;;28.02;39.79;100146.50;113011;1249;22230;-53
2023/08/24 08:59:29;;;;;;;3.10;1.80;;;;;;;28.12;39.42;100146.10;112817;1248;22383;-53
2023/08/24 09:02:00;;;;;;;5.80;2.60;;;;;;;28.19;38.89;100142.90;112877;1249;23268;-52
2023/08/24 09:04:29;;;;;;;4.60;2.40;;;;;;;28.13;38.53;100140.60;112974;1249;22895;-52
2023/08/24 09:06:56;;;;;;;5.40;2.20;;;;;;;27.97;38.44;100140.56;112669;1249;22443;-61
2023/08/24 09:09:25;;;;;;;5.60;2.60;;;;;;;27.82;38.88;100133.27;112936;1249;22212;-63
2023/08/24 09:11:52;;;;;;;6.40;2.70;;;;;;;27.84;39.12;100131.86;112750;1249;22404;-52
2023/08/24 09:14:19;;;;;;;4.40;2.20;;;;;;;27.96;38.87;100129.34;112795;1249;22362;-50
2023/08/24 09:16:46;;;;;;;3.40;1.90;;;;;;;28.02;38.55;100122.85;112768;1249;23094;-59
2023/08/24 09:19:13;;;;;;;4.30;2.10;;;;;;;28.05;38.90;100129.36;112964;1249;22597;-59
2023/08/24 09:21:41;;;;;;;5.70;2.40;;;;;;;28.11;38.99;100120.20;113003;1249;22490;-59
2023/08/24 09:24:09;;;;;;;5.40;1.80;;;;;;;28.19;39.07;100124.77;112975;1249;23421;-60
2023/08/24 09:26:37;;;;;;;7.20;2.30;;;;;;;28.26;38.61;100124.25;112804;1249;23134;-53
2023/08/24 09:29:14;;;;;;;8.50;2.60;;;;;;;28.33;38.68;100115.96;113005;1249;22385;-52
2023/08/24 09:31:43;;;;;;;9.50;2.60;;;;;;;28.42;38.22;100115.34;113015;1249;22800;-59
2023/08/24 09:34:11;;;;;;;15.20;2.80;;;;;;;28.44;38.23;100114.48;112982;1249;22435;-59
2023/08/24 09:36:39;;;;;;;9.60;2.50;;;;;;;28.48;38.25;100107.48;112550;1249;22493;-59
2023/08/24 09:39:09;;;;;;;3.70;2.30;;;;;;;28.57;38.30;100111.77;112430;1249;22428;-61
2023/08/24 09:41:46;;;;;;;8.20;2.20;;;;;;;28.56;38.23;100114.05;110565;1235;25494;-52
2023/08/24 09:44:13;;;;;;;10.60;2.50;;;;;;;28.47;38.23;100117.41;112233;1249;22528;-60
2023/08/24 09:46:40;;;;;;;4.00;2.40;;;;;;;28.37;38.35;100117.15;111328;1249;23205;-53
2023/08/24 09:49:09;;;;;;;4.90;2.60;;;;;;;28.28;38.52;100123.89;111167;1249;22540;-62
2023/08/24 09:51:38;;;;;;;5.60;2.00;;;;;;;28.16;38.76;100120.30;111199;1249;24099;-59
2023/08/24 09:54:08;;;;;;;4.30;2.50;;;;;;;28.09;38.93;100123.36;111035;1249;22503;-52
2023/08/24 09:56:39;;;;;;;5.80;2.30;;;;;;;28.08;38.98;100119.32;110839;1249;25382;-52
2023/08/24 09:59:21;;;;;;;4.90;2.70;;;;;;;28.16;39.13;100118.55;110705;1249;25310;-61
2023/08/24 10:01:49;;;;;;;4.70;2.40;;;;;;;28.31;38.87;100109.46;110494;1249;22510;-59
2023/08/24 10:04:22;;;;;;;4.10;2.20;;;;;;;28.40;38.96;100103.27;113024;1249;22482;-60
2023/08/24 10:06:59;;;;;;;3.90;2.40;;;;;;;28.46;38.68;100102.80;112820;1249;25260;-51
2023/08/24 10:09:38;;;;;;;10.40;2.30;;;;;;;28.48;38.52;100101.44;112995;1249;22374;-52
2023/08/24 10:12:08;;;;;;;4.90;2.50;;;;;;;28.44;38.57;100101.73;112938;1249;22248;-53
2023/08/24 10:14:46;;;;;;;5.10;2.10;;;;;;;28.41;38.57;100098.74;112947;1249;23725;-52
2023/08/24 10:17:13;;;;;;;4.20;2.20;;;;;;;28.37;38.51;100100.65;112574;1249;22651;-60
2023/08/24 10:19:42;;;;;;;10.60;2.60;;;;;;;28.31;38.45;100099.30;112753;1249;23689;-52
2023/08/24 10:22:09;;;;;;;6.60;2.20;;;;;;;28.26;38.41;100094.11;112931;1249;22434;-53
2023/08/24 10:24:36;;;;;;;9.10;3.00;;;;;;;28.32;38.71;100090.59;112755;1248;22398;-53
2023/08/24 10:27:03;;;;;;;5.00;2.70;;;;;;;28.52;38.87;100091.39;112982;1249;22414;-60
2023/08/24 10:29:30;;;;;;;7.60;2.10;;;;;;;28.76;38.77;100088.77;112950;1249;22421;-61
2023/08/24 10:31:57;;;;;;;3.30;2.40;;;;;;;29.06;37.91;100087.73;112939;1249;23103;-60
2023/08/24 10:34:24;;;;;;;5.70;2.30;;;;;;;29.31;37.82;100081.89;112726;1249;22361;-60
2023/08/24 10:36:52;;;;;;;6.20;2.50;;;;;;;29.60;36.90;100079.35;112953;1249;22448;-60
2023/08/24 10:39:26;;;;;;;4.70;2.40;;;;;;;29.87;36.02;100084.47;112936;1249;22381;-61
2023/08/24 10:41:53;;;;;;;5.40;2.70;;;;;;;30.25;35.14;100080.21;112776;1248;22210;-60
2023/08/24 10:44:43;;;;;;;4.40;2.70;;;;;;;30.64;34.76;100079.74;112951;1249;22442;-54
2023/08/24 10:47:19;;;;;;;4.80;2.70;;;;;;;30.90;34.19;100082.83;112986;1249;22343;-53
2023/08/24 10:49:55;;;;;;;8.00;2.70;;;;;;;31.11;33.46;100073.42;112967;1249;23341;-53
2023/08/24 10:52:33;;;;;;;4.70;2.80;;;;;;;31.40;33.07;100073.73;112982;1248;22387;-61
2023/08/24 10:55:01;;;;;;;7.20;2.60;;;;;;;31.74;32.40;100055.32;111004;1249;25311;-53
2023/08/24 10:57:43;;;;;;;8.20;2.30;;;;;;;31.92;31.90;100054.14;112000;1249;23042;-59
2023/08/24 11:00:13;;;;;;;3.50;2.50;;;;;;;32.03;31.44;100060.11;111777;1249;22589;-61
2023/08/24 11:02:47;;;;;;;10.20;2.60;;;;;;;32.00;31.29;100055.20;112242;1249;22948;-61
2023/08/24 11:05:19;;;;;;;9.90;2.70;;;;;;;31.85;30.91;100055.16;111817;1249;22410;-51
2023/08/24 11:07:56;;;;;;;7.50;3.80;;;;;;;31.49;30.31;100052.04;113018;1249;22437;-52
2023/08/24 11:10:46;;;;;;;4.10;2.40;;;;;;;31.33;31.04;100046.45;112539;1248;22522;-52
2023/08/24 11:13:14;;;;;;;3.60;2.60;;;;;;;31.45;31.25;100049.23;110416;1249;22529;-51
2023/08/24 11:15:42;;;;;;;4.90;2.70;;;;;;;31.59;31.06;100044.38;111210;1249;22983;-54
2023/08/24 11:18:21;;;;;;;4.00;2.40;;;;;;;31.72;30.67;100042.27;112584;1249;23046;-60
2023/08/24 11:21:05;;;;;;;8.50;3.00;;;;;;;31.64;30.80;100041.27;111243;1249;22639;-53
2023/08/24 11:23:33;;;;;;;5.30;2.70;;;;;;;31.27;31.93;100042.80;111020;1249;22560;-51
2023/08/24 11:26:00;;;;;;;6.00;3.00;;;;;;;31.03;32.28;100043.34;110560;1249;24239;-52
2023/08/24 11:28:28;;;;;;;3.80;2.40;;;;;;;30.86;32.44;100043.27;110879;1249;22510;-52
2023/08/24 11:30:56;;;;;;;6.00;2.60;;;;;;;30.56;32.47;100042.82;111017;1249;22519;-53
2023/08/24 11:33:29;;;;;;;5.60;2.40;;;;;;;30.16;33.00;100036.55;110798;1249;22513;-51
2023/08/24 11:35:56;;;;;;;4.60;2.50;;;;;;;29.85;33.69;100036.29;109966;1249;22508;-60
2023/08/24 11:38:23;;;;;;;5.80;2.90;;;;;;;29.64;34.19;100032.65;111104;1249;25396;-59
2023/08/24 11:40:50;;;;;;;3.10;2.70;;;;;;;29.48;34.30;100030.23;110607;1249;24964;-60
2023/08/24 11:43:26;;;;;;;8.60;2.80;;;;;;;29.43;34.26;100031.98;110115;1249;22515;-60
2023/08/24 11:45:54;;;;;;;3.30;2.70;;;;;;;29.44;33.66;100033.95;109887;1249;22518;-59
2023/08/24 11:48:25;;;;;;;5.60;2.60;;;;;;;29.37;33.83;100023.00;110640;1249;22537;-59
2023/08/24 11:50:54;;;;;;;6.40;2.40;;;;;;;29.31;33.88;100017.07;110652;1249;25437;-60
2023/08/24 11:53:22;;;;;;;7.10;2.60;;;;;;;29.30;34.03;100022.17;110456;1249;22695;-59
2023/08/24 11:55:52;;;;;;;4.90;2.60;;;;;;;29.33;34.19;100018.49;110420;1249;22893;-59
2023/08/24 11:58:32;;;;;;;8.10;2.90;;;;;;;29.29;33.30;100015.63;110246;1249;22559;-51
2023/08/24 12:01:00;;;;;;;3.10;2.60;;;;;;;29.16;32.96;100013.96;109927;1249;22512;-59
2023/08/24 12:03:27;;;;;;;4.60;2.80;;;;;;;29.02;32.89;100016.02;110070;1249;24019;-51
2023/08/24 12:05:59;;;;;;;4.70;2.70;;;;;;;28.84;32.77;100016.69;110020;1249;22893;-54
2023/08/24 12:08:26;;;;;;;9.20;3.10;;;;;;;28.78;33.42;100010.61;111129;1249;23835;-61
2023/08/24 12:10:53;;;;;;;5.50;2.60;;;;;;;28.89;33.36;100010.21;110934;1249;22501;-59
2023/08/24 12:13:20;;;;;;;4.40;2.60;;;;;;;29.04;33.24;100003.43;113021;1248;22367;-59
2023/08/24 12:15:50;;;;;;;2.90;2.30;;;;;;;29.12;32.88;100001.38;113044;1248;22373;-51
2023/08/24 12:18:17;;;;;;;4.90;2.80;;;;;;;29.20;32.73;99997.48;113046;1249;22144;-52
2023/08/24 12:20:44;;;;;;;3.30;2.20;;;;;;;29.24;32.52;99995.93;110929;1249;25263;-59
2023/08/24 12:23:11;;;;;;;2.60;2.30;;;;;;;29.28;32.46;99992.20;110874;1249;24189;-60
2023/08/24 12:25:42;;;;;;;3.70;2.50;;;;;;;29.29;31.58;99993.89;109855;1249;22511;-52
